Time;durP1;ratioP1;P1;durP2;ratioP2;P2;SDS_P1;SDS_P2;PMS_P1;PMS_P2;Temp;Humidity;BMP_temperature;BMP_pressure;BME280_temperature;BME280_humidity;BME280_pressure;Samples;Min_cycle;Max_cycle;Signal;HPM_P1;HPM_P2
2023/06/11 00:01:24;;;;;;;2.25;2.15;;;20.20;99.90;;;;;;5058297;28;20043;-76
2023/06/11 00:03:53;;;;;;;0.75;0.75;;;20.10;99.90;;;;;;5058240;28;20031;-74
2023/06/11 00:06:22;;;;;;;0.20;0.20;;;20.20;99.90;;;;;;5058988;28;20466;-74
2023/06/11 00:08:52;;;;;;;0.10;0.10;;;20.10;99.90;;;;;;5058214;28;20021;-75
2023/06/11 00:11:18;;;;;;;0.20;0.20;;;20.20;99.90;;;;;;5058262;28;20048;-74
2023/06/11 00:13:44;;;;;;;0.17;0.17;;;20.30;99.90;;;;;;5058113;28;20619;-75
2023/06/11 00:16:12;;;;;;;0.30;0.30;;;20.30;99.90;;;;;;5058268;28;20020;-75
2023/06/11 00:18:41;;;;;;;0.47;0.47;;;20.20;99.90;;;;;;5058308;28;20078;-75
2023/06/11 00:21:12;;;;;;;0.20;0.20;;;20.20;99.90;;;;;;5058277;28;20024;-75
2023/06/11 00:23:38;;;;;;;0.25;0.25;;;20.20;99.90;;;;;;5058046;28;20058;-75
2023/06/11 00:26:07;;;;;;;0.20;0.20;;;20.30;99.90;;;;;;5057859;28;20086;-75
2023/06/11 00:28:33;;;;;;;1.25;1.05;;;20.20;99.90;;;;;;5057747;28;20499;-74
2023/06/11 00:31:08;;;;;;;0.20;0.20;;;20.20;99.90;;;;;;5058036;28;20051;-74
2023/06/11 00:33:34;;;;;;;0.10;0.10;;;20.20;99.90;;;;;;5057750;28;20023;-74
2023/06/11 00:36:00;;;;;;;0.10;0.10;;;20.30;99.90;;;;;;5057917;28;20028;-74
2023/06/11 00:38:26;;;;;;;0.10;0.10;;;20.30;99.90;;;;;;5057616;28;20301;-74
2023/06/11 00:40:52;;;;;;;0.10;0.10;;;20.30;99.90;;;;;;5057925;28;20506;-74
2023/06/11 00:43:21;;;;;;;0.30;0.30;;;20.20;99.90;;;;;;5057775;28;20107;-74
2023/06/11 00:45:50;;;;;;;0.20;0.20;;;20.20;99.90;;;;;;5057537;28;20012;-74
2023/06/11 00:48:20;;;;;;;0.10;0.10;;;20.30;99.90;;;;;;5057544;28;20024;-74
2023/06/11 00:50:50;;;;;;;0.10;0.10;;;20.20;99.90;;;;;;5057537;28;20041;-74
2023/06/11 00:53:18;;;;;;;0.10;0.10;;;20.20;99.90;;;;;;5057348;28;20016;-74
2023/06/11 00:55:45;;;;;;;0.20;0.20;;;20.30;99.90;;;;;;5057140;28;20411;-75
2023/06/11 00:58:15;;;;;;;0.10;0.10;;;20.30;99.90;;;;;;5057365;28;20017;-74
2023/06/11 01:00:46;;;;;;;0.10;0.10;;;20.30;99.90;;;;;;5057532;28;20703;-76
2023/06/11 01:03:21;;;;;;;0.10;0.10;;;20.20;99.90;;;;;;5057420;28;20500;-75
2023/06/11 01:06:01;;;;;;;0.20;0.20;;;20.30;99.90;;;;;;5038616;28;20085;-73
2023/06/11 01:08:29;;;;;;;2.45;2.30;;;20.20;99.90;;;;;;5039047;28;20562;-74
2023/06/11 01:11:01;;;;;;;1.25;1.10;;;20.10;99.90;;;;;;5039048;28;20118;-76
2023/06/11 01:13:27;;;;;;;0.77;0.77;;;20.10;99.90;;;;;;5057319;28;20028;-74
2023/06/11 01:16:06;;;;;;;0.20;0.20;;;20.10;99.90;;;;;;5057251;28;20012;-75
2023/06/11 01:18:39;;;;;;;0.20;0.20;;;20.20;99.90;;;;;;5056982;28;20017;-74
2023/06/11 01:21:17;;;;;;;0.95;0.95;;;20.20;99.90;;;;;;5039202;28;20025;-75
2023/06/11 01:24:03;;;;;;;1.35;1.27;;;20.30;99.90;;;;;;5057402;28;20017;-75
2023/06/11 01:27:04;;;;;;;0.20;0.20;;;19.70;99.90;;;;;;5057268;28;20028;-74
2023/06/11 01:29:32;;;;;;;1.05;1.05;;;20.10;99.90;;;;;;5057471;28;20029;-74
2023/06/11 01:32:00;;;;;;;0.95;0.95;;;20.10;99.90;;;;;;5057406;28;20098;-74
2023/06/11 01:34:26;;;;;;;0.10;0.10;;;20.10;99.90;;;;;;5057190;28;20254;-75
2023/06/11 01:36:53;;;;;;;0.22;0.22;;;20.00;99.90;;;;;;5057054;28;20021;-74
2023/06/11 01:39:19;;;;;;;0.20;0.20;;;23.20;99.90;;;;;;5057303;28;20297;-75
2023/06/11 01:41:45;;;;;;;1.90;0.95;;;20.00;99.90;;;;;;5057423;28;20525;-75
2023/06/11 01:44:12;;;;;;;0.25;0.25;;;20.10;99.90;;;;;;5056894;28;20036;-74
2023/06/11 01:46:38;;;;;;;0.10;0.10;;;20.20;99.90;;;;;;5056977;28;20194;-75
2023/06/11 01:49:04;;;;;;;0.30;0.30;;;20.00;99.90;;;;;;5057019;28;20047;-74
2023/06/11 01:51:30;;;;;;;0.20;0.20;;;20.00;99.90;;;;;;5057526;28;20400;-77
2023/06/11 01:53:56;;;;;;;0.20;0.20;;;20.00;99.90;;;;;;5057077;28;20044;-75
2023/06/11 01:56:22;;;;;;;0.55;0.55;;;20.00;99.90;;;;;;5057160;28;20217;-74
2023/06/11 01:58:48;;;;;;;0.10;0.10;;;20.00;99.90;;;;;;5057108;28;20694;-74
2023/06/11 02:01:13;;;;;;;0.47;0.47;;;19.70;99.90;;;;;;5057217;28;20063;-74
2023/06/11 02:03:41;;;;;;;0.63;0.63;;;19.80;99.90;;;;;;5057206;28;20541;-74
2023/06/11 02:06:07;;;;;;;2.17;2.08;;;;;;;;;;5057612;28;20016;-74
2023/06/11 02:08:34;;;;;;;0.15;0.15;;;19.80;99.90;;;;;;5056698;28;20348;-76
2023/06/11 02:10:59;;;;;;;0.20;0.20;;;19.90;99.90;;;;;;5056738;28;20349;-75
2023/06/11 02:13:30;;;;;;;0.20;0.20;;;;;;;;;;5056805;28;20379;-74
2023/06/11 02:15:58;;;;;;;0.10;0.10;;;19.80;99.90;;;;;;5056503;28;20344;-76
2023/06/11 02:18:24;;;;;;;0.20;0.20;;;20.20;99.90;;;;;;5058604;28;20097;-75
2023/06/11 02:20:49;;;;;;;1.02;0.98;;;20.10;99.90;;;;;;5042203;28;20206;-76
2023/06/11 02:23:16;;;;;;;0.10;0.10;;;19.90;99.90;;;;;;5060233;28;20021;-77
2023/06/11 02:25:42;;;;;;;0.10;0.10;;;19.90;99.90;;;;;;5060406;28;20025;-84
2023/06/11 02:28:07;;;;;;;0.10;0.10;;;20.00;99.90;;;;;;5060172;28;20216;-77
2023/06/11 02:30:33;;;;;;;0.10;0.10;;;20.10;99.90;;;;;;5059822;28;20244;-73
2023/06/11 02:32:59;;;;;;;0.10;0.10;;;20.10;99.90;;;;;;5060099;28;20050;-83
2023/06/11 02:35:25;;;;;;;0.32;0.32;;;20.10;99.90;;;;;;5060115;28;20025;-76
2023/06/11 02:37:50;;;;;;;0.30;0.30;;;20.10;99.90;;;;;;5060052;28;20027;-74
2023/06/11 02:40:16;;;;;;;0.10;0.10;;;20.00;99.90;;;;;;5060401;28;20024;-82
2023/06/11 02:42:42;;;;;;;0.13;0.13;;;19.90;99.90;;;;;;5060430;28;20545;-74
2023/06/11 02:45:08;;;;;;;0.10;0.10;;;19.90;99.90;;;;;;5041674;28;20082;-77
2023/06/11 02:47:33;;;;;;;0.35;0.32;;;19.80;99.90;;;;;;5060185;28;20016;-75
2023/06/11 02:49:59;;;;;;;0.82;0.82;;;19.80;99.90;;;;;;5060300;28;20083;-74
2023/06/11 02:52:25;;;;;;;0.10;0.10;;;19.70;99.90;;;;;;5059675;28;20567;-74
2023/06/11 02:54:51;;;;;;;0.10;0.10;;;19.80;99.90;;;;;;5059624;28;20053;-74
2023/06/11 02:57:16;;;;;;;0.10;0.10;;;19.80;99.90;;;;;;5060061;28;20506;-75
2023/06/11 02:59:42;;;;;;;0.25;0.25;;;19.80;99.90;;;;;;5060409;28;20036;-74
2023/06/11 03:02:08;;;;;;;0.10;0.10;;;19.90;99.90;;;;;;5060232;28;20321;-77
2023/06/11 03:04:33;;;;;;;0.50;0.50;;;19.90;99.90;;;;;;5060330;28;20021;-74
2023/06/11 03:06:59;;;;;;;0.20;0.20;;;20.00;99.90;;;;;;5060491;28;20020;-75
2023/06/11 03:09:25;;;;;;;0.20;0.20;;;19.90;99.90;;;;;;5060992;28;20554;-74
2023/06/11 03:11:52;;;;;;;0.20;0.20;;;19.90;99.90;;;;;;5061479;28;20667;-74
2023/06/11 03:14:20;;;;;;;0.15;0.15;;;19.90;99.90;;;;;;5059557;28;20036;-73
2023/06/11 03:16:45;;;;;;;3.50;3.13;;;19.90;99.90;;;;;;5060806;28;20518;-74
2023/06/11 03:19:11;;;;;;;0.20;0.20;;;19.90;99.90;;;;;;5060863;28;20025;-75
2023/06/11 03:21:37;;;;;;;0.10;0.10;;;19.90;99.90;;;;;;5059320;28;20111;-74
2023/06/11 03:24:03;;;;;;;0.45;0.45;;;19.90;99.90;;;;;;5059048;28;20437;-74
2023/06/11 03:26:29;;;;;;;0.13;0.13;;;19.90;99.90;;;;;;5059029;28;20309;-73
2023/06/11 03:28:54;;;;;;;0.15;0.15;;;19.90;99.90;;;;;;5058379;28;20043;-73
2023/06/11 03:31:20;;;;;;;0.50;0.50;;;20.00;99.90;;;;;;5058616;28;20096;-74
2023/06/11 03:33:46;;;;;;;1.17;1.05;;;19.90;99.90;;;;;;5058872;28;20230;-73
2023/06/11 03:36:12;;;;;;;0.10;0.10;;;19.90;99.90;;;;;;5059062;28;20036;-73
2023/06/11 03:38:38;;;;;;;0.17;0.17;;;19.90;99.90;;;;;;5058875;28;20081;-78
2023/06/11 03:41:04;;;;;;;0.47;0.47;;;19.90;99.90;;;;;;5058758;28;20265;-76
2023/06/11 03:43:30;;;;;;;0.10;0.10;;;20.00;99.90;;;;;;5058755;28;20043;-73
2023/06/11 03:45:55;;;;;;;0.25;0.25;;;20.00;99.90;;;;;;5040777;28;20012;-74
2023/06/11 03:48:21;;;;;;;0.10;0.10;;;19.90;99.90;;;;;;5058685;28;20028;-76
2023/06/11 03:50:47;;;;;;;0.30;0.30;;;;;;;;;;5058848;28;20032;-75
2023/06/11 03:53:14;;;;;;;0.10;0.10;;;19.80;99.90;;;;;;5040190;28;20016;-76
2023/06/11 03:55:40;;;;;;;0.68;0.68;;;;;;;;;;5058973;28;20036;-74
2023/06/11 03:58:06;;;;;;;0.10;0.10;;;19.80;99.90;;;;;;5058812;28;20066;-75
2023/06/11 04:00:32;;;;;;;0.10;0.10;;;19.70;99.90;;;;;;5058653;28;20274;-75
2023/06/11 04:03:01;;;;;;;0.10;0.10;;;19.80;99.90;;;;;;5040426;28;20067;-78
2023/06/11 04:05:26;;;;;;;0.17;0.17;;;19.90;99.90;;;;;;5058868;28;20040;-79
2023/06/11 04:07:52;;;;;;;1.40;1.30;;;19.80;99.90;;;;;;5058522;28;20013;-76
2023/06/11 04:10:18;;;;;;;0.20;0.20;;;19.90;99.90;;;;;;5058078;28;20321;-75
2023/06/11 04:12:45;;;;;;;0.10;0.10;;;19.90;99.90;;;;;;5058379;28;20040;-81
2023/06/11 04:15:12;;;;;;;0.25;0.25;;;20.00;99.90;;;;;;5058276;28;20521;-78
2023/06/11 04:17:39;;;;;;;0.10;0.10;;;20.00;99.90;;;;;;5058128;28;20703;-86
2023/06/11 04:20:05;;;;;;;0.10;0.10;;;21.30;99.90;;;;;;5058146;28;20298;-75
2023/06/11 04:22:31;;;;;;;0.22;0.22;;;19.60;99.90;;;;;;5058237;28;20197;-85
2023/06/11 04:24:57;;;;;;;0.10;0.10;;;20.00;99.90;;;;;;5057899;28;20024;-75
2023/06/11 04:27:23;;;;;;;0.20;0.20;;;20.00;99.90;;;;;;5058209;28;20259;-80
2023/06/11 04:29:52;;;;;;;0.30;0.30;;;20.00;99.90;;;;;;5058789;28;20086;-77
2023/06/11 04:32:20;;;;;;;0.20;0.20;;;20.00;99.90;;;;;;5058342;28;20028;-80
2023/06/11 04:34:48;;;;;;;0.10;0.10;;;20.00;99.90;;;;;;5040036;28;20036;-74
2023/06/11 04:37:16;;;;;;;0.20;0.20;;;20.00;99.90;;;;;;5039832;28;20107;-75
2023/06/11 04:39:41;;;;;;;2.45;2.30;;;20.00;99.90;;;;;;5057978;28;20020;-73
2023/06/11 04:42:07;;;;;;;0.10;0.10;;;20.00;99.90;;;;;;5041547;28;20081;-74
2023/06/11 04:44:36;;;;;;;0.30;0.30;;;19.90;99.90;;;;;;5058481;28;20149;-74
2023/06/11 04:47:05;;;;;;;0.15;0.15;;;20.00;99.90;;;;;;5058032;28;20314;-74
2023/06/11 04:49:32;;;;;;;0.10;0.10;;;20.00;99.90;;;;;;5057893;28;20177;-74
2023/06/11 04:51:58;;;;;;;0.40;0.40;;;20.00;99.90;;;;;;5057540;28;20237;-81
2023/06/11 04:54:24;;;;;;;0.95;0.95;;;20.10;99.90;;;;;;5057492;28;20337;-77
2023/06/11 04:56:50;;;;;;;0.20;0.20;;;20.10;99.90;;;;;;5057681;28;20139;-76
2023/06/11 04:59:16;;;;;;;1.95;1.85;;;20.20;99.90;;;;;;5058194;28;20024;-80
2023/06/11 05:01:48;;;;;;;0.30;0.30;;;20.20;99.90;;;;;;5060513;28;20085;-80
2023/06/11 05:04:14;;;;;;;0.25;0.25;;;20.20;99.90;;;;;;5062140;28;20025;-75
2023/06/11 05:06:44;;;;;;;0.20;0.20;;;20.20;99.90;;;;;;5057703;28;20020;-76
2023/06/11 05:09:12;;;;;;;0.30;0.30;;;20.30;99.90;;;;;;5057271;28;20017;-76
2023/06/11 05:11:38;;;;;;;0.43;0.43;;;20.40;99.90;;;;;;5057267;28;20526;-76
2023/06/11 05:14:04;;;;;;;0.65;0.65;;;20.40;99.90;;;;;;5057555;28;20021;-77
2023/06/11 05:16:31;;;;;;;0.10;0.10;;;19.20;99.90;;;;;;5057250;28;20029;-75
2023/06/11 05:18:56;;;;;;;5.32;4.85;;;20.40;99.90;;;;;;5056873;28;20123;-77
2023/06/11 05:21:22;;;;;;;0.90;0.90;;;20.40;99.90;;;;;;5057368;28;20100;-75
2023/06/11 05:23:48;;;;;;;0.35;0.35;;;;;;;;;;5056449;28;20025;-77
2023/06/11 05:26:15;;;;;;;2.72;2.17;;;20.40;99.90;;;;;;5057093;28;20028;-76
2023/06/11 05:28:40;;;;;;;0.30;0.30;;;20.50;99.90;;;;;;5057028;28;20025;-75
2023/06/11 05:31:09;;;;;;;0.13;0.13;;;20.50;99.90;;;;;;5057163;28;20043;-75
2023/06/11 05:33:36;;;;;;;3.45;3.22;;;20.60;99.90;;;;;;5057122;28;20024;-75
2023/06/11 05:36:01;;;;;;;1.40;1.30;;;20.60;99.90;;;;;;5056824;28;20328;-75
2023/06/11 05:38:28;;;;;;;0.43;0.43;;;20.60;99.90;;;;;;5056453;28;20029;-75
2023/06/11 05:40:54;;;;;;;1.05;1.05;;;20.70;99.90;;;;;;5056383;28;20248;-81
2023/06/11 05:43:20;;;;;;;0.17;0.17;;;20.60;99.90;;;;;;5056593;28;20090;-84
2023/06/11 05:45:50;;;;;;;0.55;0.55;;;20.70;99.90;;;;;;5056873;28;20442;-73
2023/06/11 05:48:17;;;;;;;2.47;2.30;;;20.70;99.90;;;;;;5056425;28;20391;-74
2023/06/11 05:50:43;;;;;;;2.58;2.38;;;20.50;99.90;;;;;;5056708;28;20079;-74
2023/06/11 05:53:09;;;;;;;0.15;0.15;;;20.50;99.90;;;;;;5057751;28;20479;-75
2023/06/11 05:55:37;;;;;;;0.50;0.50;;;20.50;99.90;;;;;;5032785;28;20084;-74
2023/06/11 05:58:03;;;;;;;0.20;0.20;;;20.50;99.90;;;;;;5040502;28;20025;-74
2023/06/11 06:00:29;;;;;;;9.30;8.65;;;20.60;99.90;;;;;;5040527;28;20083;-80
2023/06/11 06:02:55;;;;;;;0.30;0.30;;;20.60;99.90;;;;;;5040644;28;20699;-75
2023/06/11 06:05:21;;;;;;;0.10;0.10;;;20.40;99.90;;;;;;5022374;28;20550;-75
2023/06/11 06:07:47;;;;;;;0.68;0.68;;;20.40;99.90;;;;;;5040648;28;20100;-76
2023/06/11 06:10:13;;;;;;;2.78;2.53;;;20.30;99.90;;;;;;5041489;28;20497;-77
2023/06/11 06:12:39;;;;;;;0.20;0.20;;;20.10;99.90;;;;;;5040585;28;20080;-78
2023/06/11 06:15:06;;;;;;;0.40;0.40;;;19.90;99.90;;;;;;5041053;28;20503;-76
2023/06/11 06:17:32;;;;;;;0.13;0.13;;;19.80;99.90;;;;;;5022767;28;20559;-76
2023/06/11 06:19:58;;;;;;;0.10;0.10;;;;;;;;;;5040696;28;20260;-76
2023/06/11 06:22:25;;;;;;;0.20;0.20;;;19.60;99.90;;;;;;5041556;28;20484;-89
2023/06/11 06:24:51;;;;;;;0.10;0.10;;;19.50;99.90;;;;;;5023744;28;20337;-86
2023/06/11 06:27:16;;;;;;;0.40;0.40;;;19.50;99.90;;;;;;5041799;28;20372;-76
2023/06/11 06:29:42;;;;;;;0.10;0.10;;;19.40;99.90;;;;;;5022259;28;20422;-76
2023/06/11 06:32:08;;;;;;;0.10;0.10;;;19.40;99.90;;;;;;5040899;28;20039;-76
2023/06/11 06:34:34;;;;;;;0.22;0.22;;;19.40;99.90;;;;;;5040237;28;20499;-77
2023/06/11 06:37:03;;;;;;;0.10;0.10;;;19.40;99.90;;;;;;5040101;28;20048;-85
2023/06/11 06:39:29;;;;;;;0.57;0.57;;;19.40;99.90;;;;;;5040149;28;20031;-76
2023/06/11 06:41:55;;;;;;;0.10;0.10;;;19.60;99.90;;;;;;5040805;28;20724;-80
2023/06/11 06:44:20;;;;;;;0.32;0.32;;;19.40;99.90;;;;;;5042020;28;20182;-76
2023/06/11 06:46:49;;;;;;;0.20;0.20;;;19.30;99.90;;;;;;5022007;28;20427;-76
2023/06/11 06:49:15;;;;;;;0.20;0.20;;;19.60;99.90;;;;;;5039751;28;20094;-76
2023/06/11 06:51:41;;;;;;;0.65;0.45;;;19.70;99.90;;;;;;5040831;28;20052;-77
2023/06/11 06:54:07;;;;;;;0.22;0.22;;;19.70;99.90;;;;;;5047235;28;20040;-76
2023/06/11 06:56:33;;;;;;;0.20;0.20;;;19.80;99.90;;;;;;5060066;28;20037;-78
2023/06/11 06:58:59;;;;;;;0.20;0.20;;;19.90;99.90;;;;;;5043219;28;20524;-77
2023/06/11 07:01:25;;;;;;;1.50;1.40;;;19.90;99.90;;;;;;5042144;28;20227;-76
2023/06/11 07:03:50;;;;;;;3.40;3.30;;;20.00;99.90;;;;;;5041918;28;20059;-78
2023/06/11 07:06:16;;;;;;;1.45;1.40;;;20.00;99.90;;;;;;5060137;28;20029;-76
2023/06/11 07:08:44;;;;;;;1.27;0.75;;;20.20;99.90;;;;;;5059899;28;20544;-77
2023/06/11 07:11:09;;;;;;;0.20;0.20;;;20.20;99.90;;;;;;5059714;28;20102;-76
2023/06/11 07:13:35;;;;;;;0.32;0.32;;;20.30;99.90;;;;;;5059697;28;20479;-76
2023/06/11 07:16:01;;;;;;;0.30;0.30;;;20.40;99.90;;;;;;5041862;28;20111;-76
2023/06/11 07:18:29;;;;;;;0.75;0.75;;;20.40;99.90;;;;;;5041450;28;20305;-78
2023/06/11 07:20:54;;;;;;;0.20;0.20;;;20.60;99.90;;;;;;5043024;28;20029;-76
2023/06/11 07:23:20;;;;;;;0.20;0.20;;;20.60;99.90;;;;;;5044755;28;20540;-77
2023/06/11 07:25:50;;;;;;;1.55;1.45;;;20.70;99.90;;;;;;5063615;28;20321;-83
2023/06/11 07:28:16;;;;;;;0.17;0.17;;;20.70;99.90;;;;;;5062341;28;20301;-78
2023/06/11 07:30:41;;;;;;;0.30;0.30;;;20.60;99.90;;;;;;5062126;28;20395;-78
2023/06/11 07:33:08;;;;;;;0.40;0.40;;;20.70;99.90;;;;;;5062203;28;20161;-87
2023/06/11 07:35:34;;;;;;;4.22;1.30;;;20.80;99.90;;;;;;5062560;28;20635;-82
2023/06/11 07:38:00;;;;;;;0.10;0.10;;;20.80;99.90;;;;;;5060280;28;20017;-75
2023/06/11 07:40:25;;;;;;;0.63;0.47;;;20.90;99.90;;;;;;5042251;28;20041;-77
2023/06/11 07:42:51;;;;;;;0.10;0.10;;;20.90;99.90;;;;;;5042596;28;20025;-76
2023/06/11 07:45:17;;;;;;;0.63;0.63;;;20.30;99.90;;;;;;5042478;28;20023;-75
2023/06/11 07:47:43;;;;;;;0.13;0.13;;;20.80;99.90;;;;;;5041670;28;20162;-85
2023/06/11 07:50:11;;;;;;;1.60;1.50;;;20.70;99.90;;;;;;5062129;28;20690;-86
2023/06/11 07:52:37;;;;;;;0.52;0.52;;;20.70;99.90;;;;;;5061614;28;20052;-79
2023/06/11 07:55:06;;;;;;;0.20;0.20;;;20.20;99.90;;;;;;5043174;28;20703;-77
2023/06/11 07:57:32;;;;;;;0.25;0.25;;;20.20;99.90;;;;;;5042680;28;20081;-81
2023/06/11 07:59:58;;;;;;;0.20;0.20;;;20.20;99.90;;;;;;5042801;28;20526;-79
2023/06/11 08:02:24;;;;;;;0.50;0.50;;;20.20;99.90;;;;;;5042535;28;20020;-80
2023/06/11 08:04:50;;;;;;;0.10;0.10;;;20.20;99.90;;;;;;5042108;28;20309;-76
2023/06/11 08:07:16;;;;;;;0.40;0.40;;;20.00;99.90;;;;;;5042342;28;20101;-82
2023/06/11 08:09:41;;;;;;;2.40;2.30;;;19.90;99.90;;;;;;5060862;28;20715;-78
2023/06/11 08:12:08;;;;;;;0.20;0.20;;;20.00;99.90;;;;;;5060835;28;20016;-76
2023/06/11 08:14:35;;;;;;;0.30;0.30;;;20.00;99.90;;;;;;5060691;28;20080;-75
2023/06/11 08:17:01;;;;;;;1.00;1.00;;;20.30;99.90;;;;;;5063716;28;20021;-80
2023/06/11 08:19:27;;;;;;;0.50;0.50;;;19.80;99.90;;;;;;5044763;28;20029;-79
2023/06/11 08:22:01;;;;;;;0.20;0.20;;;19.70;99.90;;;;;;5044197;28;20024;-89
2023/06/11 08:24:30;;;;;;;1.80;1.15;;;19.60;99.90;;;;;;5066411;28;20048;-85
2023/06/11 08:26:56;;;;;;;0.20;0.20;;;19.40;99.90;;;;;;5076160;28;20230;-78
2023/06/11 08:29:22;;;;;;;0.20;0.20;;;19.50;99.90;;;;;;5070772;28;20097;-86
2023/06/11 08:31:47;;;;;;;0.93;0.93;;;20.60;99.90;;;;;;5069812;28;20736;-85
2023/06/11 08:34:13;;;;;;;0.17;0.17;;;19.50;99.90;;;;;;5065550;28;20013;-76
2023/06/11 08:36:43;;;;;;;0.20;0.20;;;19.60;99.90;;;;;;5061027;28;20096;-77
2023/06/11 08:39:09;;;;;;;0.40;0.40;;;19.50;99.90;;;;;;5042274;28;20221;-77
2023/06/11 08:41:36;;;;;;;1.75;1.65;;;19.60;99.90;;;;;;5042507;28;20115;-77
2023/06/11 08:44:02;;;;;;;0.10;0.10;;;19.60;99.90;;;;;;5044196;28;20470;-77
2023/06/11 08:46:34;;;;;;;1.00;1.00;;;19.40;99.90;;;;;;5044034;28;20034;-77
2023/06/11 08:49:06;;;;;;;0.45;0.45;;;19.30;99.90;;;;;;5044542;28;20705;-82
2023/06/11 08:51:39;;;;;;;0.10;0.10;;;19.30;99.90;;;;;;5044392;28;20025;-80
2023/06/11 08:54:09;;;;;;;1.15;0.93;;;19.30;99.90;;;;;;5042036;28;20052;-81
2023/06/11 08:56:35;;;;;;;0.20;0.20;;;19.20;99.90;;;;;;5042018;28;20025;-84
2023/06/11 08:59:06;;;;;;;9.02;2.83;;;19.20;99.90;;;;;;5059311;28;20609;-80
2023/06/11 09:01:34;;;;;;;0.10;0.10;;;19.20;99.90;;;;;;5041758;28;20019;-80
2023/06/11 09:04:00;;;;;;;0.73;0.73;;;18.80;99.90;;;;;;5040934;28;20020;-78
2023/06/11 09:06:27;;;;;;;0.10;0.10;;;19.10;99.90;;;;;;5041398;28;20078;-78
2023/06/11 09:09:07;;;;;;;0.47;0.47;;;18.90;99.90;;;;;;5040862;28;20020;-78
2023/06/11 09:11:39;;;;;;;0.20;0.20;;;18.80;99.90;;;;;;5041319;28;20021;-77
2023/06/11 09:14:06;;;;;;;0.55;0.55;;;19.40;99.90;;;;;;5041952;28;20108;-80
2023/06/11 09:16:46;;;;;;;0.20;0.20;;;18.70;99.90;;;;;;5041349;28;20518;-76
2023/06/11 09:19:14;;;;;;;0.10;0.10;;;18.60;99.90;;;;;;5040594;28;20052;-76
2023/06/11 09:21:51;;;;;;;0.15;0.15;;;18.60;99.90;;;;;;5040362;28;20050;-76
2023/06/11 09:24:19;;;;;;;0.35;0.35;;;18.50;99.90;;;;;;5040551;28;20017;-76
2023/06/11 09:26:52;;;;;;;1.10;1.05;;;18.50;99.90;;;;;;5040290;28;20043;-76
2023/06/11 09:29:18;;;;;;;0.40;0.40;;;18.40;99.90;;;;;;5041222;28;20055;-77
2023/06/11 09:31:47;;;;;;;0.57;0.57;;;18.60;99.90;;;;;;5040904;28;20028;-75
2023/06/11 09:34:22;;;;;;;0.10;0.10;;;18.50;99.90;;;;;;5062898;28;20406;-75
2023/06/11 09:36:51;;;;;;;0.10;0.10;;;18.30;99.90;;;;;;5039985;28;20355;-77
2023/06/11 09:39:18;;;;;;;0.20;0.20;;;20.20;99.90;;;;;;5043262;28;20059;-78
2023/06/11 09:41:50;;;;;;;0.13;0.13;;;18.70;99.90;;;;;;5058212;28;20033;-77
2023/06/11 09:44:19;;;;;;;0.10;0.10;;;18.70;99.90;;;;;;5041385;28;20514;-82
2023/06/11 09:46:47;;;;;;;0.38;0.38;;;18.80;99.90;;;;;;5039488;28;20033;-77
2023/06/11 09:49:14;;;;;;;0.20;0.20;;;18.90;99.90;;;;;;5041432;28;20031;-86
2023/06/11 09:51:43;;;;;;;0.73;0.73;;;18.90;99.90;;;;;;5059820;28;20021;-80
2023/06/11 09:54:10;;;;;;;0.30;0.30;;;20.60;99.90;;;;;;5060160;28;20040;-81
2023/06/11 09:56:49;;;;;;;0.10;0.10;;;18.90;99.90;;;;;;5060678;28;20013;-86
2023/06/11 09:59:17;;;;;;;0.10;0.10;;;18.90;99.90;;;;;;5042087;28;20663;-81
2023/06/11 10:01:47;;;;;;;0.32;0.32;;;18.80;99.90;;;;;;5058999;28;20025;-79
2023/06/11 10:04:15;;;;;;;0.10;0.10;;;18.80;99.90;;;;;;5039999;28;20475;-79
2023/06/11 10:06:47;;;;;;;0.10;0.10;;;18.80;99.90;;;;;;5040550;28;20466;-79
2023/06/11 10:09:15;;;;;;;0.10;0.10;;;18.80;99.90;;;;;;5039994;28;20573;-79
2023/06/11 10:11:45;;;;;;;0.10;0.10;;;18.90;99.90;;;;;;5040516;28;20662;-79
2023/06/11 10:14:21;;;;;;;0.50;0.50;;;18.90;99.90;;;;;;5041243;28;20024;-79
2023/06/11 10:16:51;;;;;;;0.25;0.25;;;18.90;99.90;;;;;;5040519;28;20678;-78
2023/06/11 10:19:19;;;;;;;0.10;0.10;;;19.00;99.90;;;;;;5040555;28;20035;-76
2023/06/11 10:21:51;;;;;;;0.10;0.10;;;19.10;99.90;;;;;;5040599;28;20502;-77
2023/06/11 10:24:27;;;;;;;0.10;0.10;;;19.10;99.90;;;;;;5040682;28;20024;-80
2023/06/11 10:27:07;;;;;;;0.35;0.35;;;19.20;99.90;;;;;;5058404;28;20223;-79
2023/06/11 10:29:45;;;;;;;0.10;0.10;;;19.20;99.90;;;;;;5039904;28;20656;-81
2023/06/11 10:32:23;;;;;;;0.73;0.73;;;19.20;99.90;;;;;;5058271;28;20112;-79
2023/06/11 10:34:57;;;;;;;1.42;1.42;;;19.30;99.90;;;;;;5040355;28;20533;-85
2023/06/11 10:37:36;;;;;;;0.68;0.68;;;19.30;99.90;;;;;;5058117;28;20048;-80
2023/06/11 10:40:04;;;;;;;0.10;0.10;;;19.30;99.90;;;;;;5043697;28;20021;-79
2023/06/11 10:42:41;;;;;;;1.77;1.65;;;19.30;99.90;;;;;;5044034;28;20024;-80
2023/06/11 10:45:13;;;;;;;0.10;0.10;;;19.30;99.90;;;;;;5044003;28;20063;-79
2023/06/11 10:47:46;;;;;;;0.10;0.10;;;19.20;99.90;;;;;;5043876;28;20605;-93
2023/06/11 10:50:19;;;;;;;0.10;0.10;;;21.10;99.90;;;;;;5062065;28;20028;-79
2023/06/11 10:52:55;;;;;;;;;;;19.10;99.90;;;;;;5043850;28;20112;-80
2023/06/11 10:55:41;;;;;;;0.10;0.10;;;19.00;99.90;;;;;;5026494;28;19975;-86
2023/06/11 10:58:18;;;;;;;0.10;0.10;;;19.10;99.90;;;;;;5041874;28;20025;-84
2023/06/11 11:00:47;;;;;;;0.10;0.10;;;19.10;99.90;;;;;;5041643;28;20021;-86
2023/06/11 11:03:16;;;;;;;0.10;0.10;;;19.10;99.90;;;;;;5041622;28;20023;-82
2023/06/11 11:05:43;;;;;;;0.10;0.10;;;;;;;;;;5042379;28;20039;-83
2023/06/11 11:08:12;;;;;;;0.10;0.10;;;19.10;99.90;;;;;;5041665;28;20025;-78
2023/06/11 11:10:38;;;;;;;0.10;0.10;;;18.90;99.90;;;;;;5041278;28;20091;-82
2023/06/11 11:13:04;;;;;;;0.20;0.20;;;19.10;99.90;;;;;;5041410;28;20679;-80
2023/06/11 11:15:30;;;;;;;0.25;0.25;;;19.20;99.90;;;;;;5041365;28;20114;-84
2023/06/11 11:17:56;;;;;;;0.15;0.15;;;19.30;99.90;;;;;;5041631;28;20489;-79
2023/06/11 11:20:22;;;;;;;0.57;0.57;;;19.60;99.90;;;;;;5023641;28;20683;-79
2023/06/11 11:22:56;;;;;;;0.10;0.10;;;19.80;99.90;;;;;;5041101;28;20024;-84
2023/06/11 11:25:25;;;;;;;;;;;22.60;99.90;;;;;;5041624;28;20499;-86
2023/06/11 11:27:57;;;;;;;0.10;0.10;;;18.50;99.90;;;;;;5024017;28;20569;-85
2023/06/11 11:30:24;;;;;;;0.40;0.40;;;20.10;99.90;;;;;;5022735;28;20119;-78
2023/06/11 11:32:52;;;;;;;0.30;0.30;;;20.10;99.90;;;;;;5023319;28;20025;-81
2023/06/11 11:35:28;;;;;;;0.10;0.10;;;20.10;99.90;;;;;;5040948;28;20698;-77
2023/06/11 11:37:54;;;;;;;0.10;0.10;;;21.10;99.90;;;;;;5027516;28;20031;-83
2023/06/11 11:40:23;;;;;;;3.03;1.95;;;21.30;99.90;;;;;;5042905;28;20025;-77
2023/06/11 11:42:57;;;;;;;0.10;0.10;;;19.20;99.90;;;;;;5026027;28;20690;-78
2023/06/11 11:45:38;;;;;;;1.40;1.30;;;22.00;99.90;;;;;;5024105;28;20049;-77
2023/06/11 11:48:09;;;;;;;1.20;1.17;;;22.20;99.90;;;;;;5022971;28;20060;-80
2023/06/11 11:50:36;;;;;;;1.35;1.35;;;22.50;99.90;;;;;;5024420;28;20574;-77
2023/06/11 11:53:07;;;;;;;1.90;1.80;;;23.00;99.90;;;;;;5022531;28;20116;-78
2023/06/11 11:55:35;;;;;;;2.50;1.48;;;23.20;99.90;;;;;;5026153;28;20690;-78
2023/06/11 11:58:15;;;;;;;0.75;0.75;;;23.50;99.90;;;;;;5043497;28;20089;-78
2023/06/11 12:00:52;;;;;;;0.30;0.30;;;23.90;99.90;;;;;;5062354;28;20474;-77
2023/06/11 12:03:23;;;;;;;0.10;0.10;;;23.80;99.90;;;;;;5060517;28;20024;-77
2023/06/11 12:06:03;;;;;;;0.20;0.20;;;25.80;99.90;;;;;;5047268;28;20031;-78
2023/06/11 12:08:30;;;;;;;1.40;0.88;;;24.20;99.90;;;;;;5061246;28;20031;-77
2023/06/11 12:11:06;;;;;;;0.10;0.10;;;24.20;99.90;;;;;;5043123;28;20136;-78
2023/06/11 12:13:31;;;;;;;0.73;0.73;;;24.70;99.90;;;;;;5046121;28;20027;-80
2023/06/11 12:15:57;;;;;;;0.10;0.10;;;25.60;99.90;;;;;;5063524;28;20013;-83
2023/06/11 12:18:26;;;;;;;0.10;0.10;;;24.80;99.90;;;;;;5043290;28;20016;-87
2023/06/11 12:20:53;;;;;;;0.10;0.10;;;24.70;99.90;;;;;;5060978;28;20032;-82
2023/06/11 12:23:21;;;;;;;0.10;0.10;;;25.10;99.90;;;;;;5060777;28;20073;-81
2023/06/11 12:25:47;;;;;;;0.10;0.10;;;25.50;99.90;;;;;;5060396;28;20017;-83
2023/06/11 12:28:32;;;;;;;0.10;0.10;;;25.10;99.90;;;;;;5060094;28;20113;-82
2023/06/11 12:30:58;;;;;;;0.90;0.43;;;25.20;99.90;;;;;;5060432;28;20040;-86
2023/06/11 12:33:24;;;;;;;0.10;0.10;;;25.50;99.90;;;;;;5060131;28;20020;-75
2023/06/11 12:35:50;;;;;;;0.00;0.00;;;25.90;99.90;;;;;;5042731;28;20016;-77
2023/06/11 12:38:18;;;;;;;0.10;0.10;;;25.80;99.90;;;;;;5062898;28;20047;-80
2023/06/11 12:40:44;;;;;;;0.10;0.10;;;26.60;99.90;;;;;;5060265;28;20032;-85
2023/06/11 12:43:10;;;;;;;0.00;0.00;;;26.60;99.90;;;;;;5060699;28;20010;-87
2023/06/11 12:45:37;;;;;;;0.10;0.10;;;26.90;99.90;;;;;;5060497;28;20233;-82
2023/06/11 12:48:04;;;;;;;0.30;0.30;;;27.10;99.90;;;;;;5060218;28;20127;-76
2023/06/11 12:50:29;;;;;;;0.00;0.00;;;27.80;99.90;;;;;;5060122;28;20115;-76
2023/06/11 12:52:55;;;;;;;0.25;0.25;;;28.60;99.90;;;;;;5042643;28;20798;-79
2023/06/11 12:55:21;;;;;;;0.17;0.17;;;29.30;96.10;;;;;;5060824;28;20056;-83